createdAt,value
2019-01-25T00:00:57.552Z,21.93
2019-01-25T00:03:45.176Z,24.27
2019-01-25T00:06:33.357Z,23.03
2019-01-25T00:09:21.225Z,23.70
2019-01-25T00:12:08.857Z,23.33
2019-01-25T00:14:56.800Z,23.83
2019-01-25T00:17:44.980Z,23.83
2019-01-25T00:20:32.735Z,23.60
2019-01-25T00:23:20.341Z,24.83
2019-01-25T00:26:08.155Z,24.43
2019-01-25T00:28:56.102Z,26.03
2019-01-25T00:31:43.824Z,24.50
2019-01-25T00:34:31.662Z,25.40
2019-01-25T00:37:19.458Z,26.97
2019-01-25T00:40:13.542Z,25.33
2019-01-25T00:43:01.580Z,24.80
2019-01-25T00:45:49.225Z,25.40
2019-01-25T00:48:37.055Z,25.37
2019-01-25T00:51:24.989Z,26.43
2019-01-25T00:54:12.791Z,25.37
2019-01-25T00:57:00.645Z,24.87
2019-01-25T00:59:48.228Z,25.60
2019-01-25T01:02:36.140Z,25.87
2019-01-25T01:05:24.312Z,26.07
2019-01-25T01:08:11.967Z,26.27
2019-01-25T01:10:59.699Z,25.80
2019-01-25T01:13:47.664Z,26.67
2019-01-25T01:16:35.728Z,27.20
2019-01-25T01:19:23.656Z,25.77
2019-01-25T01:22:11.309Z,26.53
2019-01-25T01:24:58.970Z,25.67
2019-01-25T01:27:47.181Z,26.07
2019-01-25T01:30:34.880Z,28.23
2019-01-25T01:33:22.511Z,29.03
2019-01-25T01:36:10.332Z,28.80
2019-01-25T01:38:58.176Z,28.77
2019-01-25T01:41:45.916Z,30.67
2019-01-25T01:44:33.612Z,28.53
2019-01-25T01:47:21.510Z,30.27
2019-01-25T01:50:12.306Z,30.33
2019-01-25T01:53:00.165Z,29.97
2019-01-25T01:55:48.116Z,29.40
2019-01-25T01:58:36.072Z,29.80
2019-01-25T02:01:23.828Z,30.40
2019-01-25T02:04:11.636Z,31.40
2019-01-25T02:06:59.316Z,29.70
2019-01-25T02:09:46.878Z,29.50
2019-01-25T02:12:35.148Z,30.87
2019-01-25T02:15:23.501Z,28.90
2019-01-25T02:18:11.165Z,30.77
2019-01-25T02:20:59.181Z,29.17
2019-01-25T02:23:46.993Z,29.60
2019-01-25T02:26:34.831Z,28.30
2019-01-25T02:29:22.286Z,30.23
2019-01-25T02:32:09.941Z,31.07
2019-01-25T02:34:57.692Z,30.60
2019-01-25T02:37:45.486Z,28.30
2019-01-25T02:40:39.007Z,27.37
2019-01-25T02:43:22.833Z,28.53
2019-01-25T02:46:10.907Z,29.27
2019-01-25T02:48:58.909Z,31.37
2019-01-25T02:51:46.572Z,30.83
2019-01-25T02:54:34.507Z,29.13
2019-01-25T02:57:22.444Z,31.97
2019-01-25T03:00:18.444Z,29.93
2019-01-25T03:03:06.450Z,30.23
2019-01-25T03:05:54.393Z,29.60
2019-01-25T03:08:42.397Z,31.80
2019-01-25T03:11:30.014Z,32.03
2019-01-25T03:14:17.818Z,31.33
2019-01-25T03:17:05.824Z,31.60
2019-01-25T03:19:53.600Z,30.73
2019-01-25T03:22:41.680Z,33.13
2019-01-25T03:25:29.727Z,30.23
2019-01-25T03:28:17.717Z,31.47
2019-01-25T03:31:05.642Z,30.80
2019-01-25T03:33:53.098Z,31.70
2019-01-25T03:36:41.205Z,30.37
2019-01-25T03:39:29.018Z,30.87
2019-01-25T03:42:16.697Z,30.87
2019-01-25T03:45:07.585Z,31.27
2019-01-25T03:47:55.265Z,29.30
2019-01-25T03:50:42.860Z,31.17
2019-01-25T03:53:30.499Z,33.10
2019-01-25T03:56:18.082Z,32.33
2019-01-25T03:59:06.141Z,29.80
2019-01-25T04:01:53.996Z,32.63
2019-01-25T04:04:41.664Z,32.03
2019-01-25T04:07:29.653Z,31.03
2019-01-25T04:10:19.958Z,32.80
2019-01-25T04:13:08.056Z,30.60
2019-01-25T04:15:55.647Z,31.63
2019-01-25T04:18:43.336Z,32.87
2019-01-25T04:21:31.073Z,33.80
2019-01-25T04:24:19.058Z,32.50
2019-01-25T04:27:06.848Z,32.90
2019-01-25T04:29:54.533Z,32.13
2019-01-25T04:32:42.476Z,33.40
2019-01-25T04:35:29.881Z,34.53
2019-01-25T04:38:17.829Z,32.63
2019-01-25T04:41:11.607Z,33.13
2019-01-25T04:43:55.415Z,33.27
2019-01-25T04:46:43.525Z,31.60
2019-01-25T04:49:34.459Z,34.07
2019-01-25T04:52:22.246Z,33.17
2019-01-25T04:55:18.119Z,30.93
2019-01-25T04:58:08.957Z,33.03
2019-01-25T05:01:01.585Z,34.27
2019-01-25T05:03:50.573Z,31.27
2019-01-25T05:06:38.463Z,32.13
2019-01-25T05:09:26.163Z,33.50
2019-01-25T05:12:13.885Z,33.53
2019-01-25T05:15:01.913Z,31.67
2019-01-25T05:17:54.695Z,33.20
2019-01-25T05:20:42.465Z,34.03
2019-01-25T05:23:30.437Z,32.90
2019-01-25T05:26:18.609Z,32.53
2019-01-25T05:29:06.498Z,33.50
2019-01-25T05:31:54.494Z,31.83
2019-01-25T05:34:42.301Z,34.17
2019-01-25T05:37:30.501Z,33.07
2019-01-25T05:40:26.267Z,32.30
2019-01-25T05:43:14.320Z,32.27
2019-01-25T05:46:01.928Z,34.30
2019-01-25T05:48:49.903Z,31.90
2019-01-25T05:51:37.541Z,32.37
2019-01-25T05:54:25.466Z,31.80
2019-01-25T05:57:13.160Z,31.80
2019-01-25T06:00:00.871Z,30.50
2019-01-25T06:02:48.925Z,33.80
2019-01-25T06:05:36.942Z,32.93
2019-01-25T06:08:31.770Z,32.33
2019-01-25T06:11:19.423Z,32.43
2019-01-25T06:14:08.088Z,33.40
2019-01-25T06:16:55.883Z,32.03
2019-01-25T06:19:43.729Z,32.07
2019-01-25T06:22:31.289Z,33.20
2019-01-25T06:25:19.161Z,32.27
2019-01-25T06:28:07.185Z,32.03
2019-01-25T06:30:55.619Z,31.90
2019-01-25T06:33:43.525Z,35.13
2019-01-25T06:36:31.067Z,32.53
2019-01-25T06:39:18.893Z,32.13
2019-01-25T06:42:07.006Z,32.60
2019-01-25T06:44:54.654Z,32.23
2019-01-25T06:47:42.561Z,32.43
2019-01-25T06:50:30.441Z,32.37
2019-01-25T06:53:18.594Z,29.33
2019-01-25T06:56:06.400Z,33.80
2019-01-25T06:59:01.512Z,32.47
2019-01-25T07:01:50.868Z,33.03
2019-01-25T07:04:40.601Z,31.53
2019-01-25T07:07:30.116Z,31.27
2019-01-25T07:10:19.862Z,31.10
2019-01-25T07:13:07.595Z,32.37
2019-01-25T07:15:55.689Z,31.43
2019-01-25T07:18:43.561Z,31.20
2019-01-25T07:21:31.301Z,30.07
2019-01-25T07:24:19.136Z,29.63
2019-01-25T07:27:06.928Z,33.17
2019-01-25T07:29:54.613Z,35.43
2019-01-25T07:32:42.521Z,31.00
2019-01-25T07:35:30.110Z,31.03
2019-01-25T07:38:17.739Z,30.00
2019-01-25T07:41:05.566Z,31.43
2019-01-25T07:43:53.405Z,32.57
2019-01-25T07:46:43.196Z,32.33
2019-01-25T07:49:30.917Z,31.23
2019-01-25T07:52:18.520Z,32.70
2019-01-25T07:55:12.014Z,32.97
2019-01-25T07:58:00.330Z,31.30
2019-01-25T08:00:48.273Z,31.00
2019-01-25T08:03:36.094Z,31.50
2019-01-25T08:06:23.889Z,32.40
2019-01-25T08:09:11.657Z,34.50
2019-01-25T08:12:07.009Z,33.83
2019-01-25T08:14:49.808Z,32.70
2019-01-25T08:17:37.405Z,28.57
2019-01-25T08:20:25.418Z,29.83
2019-01-25T08:23:13.182Z,30.33
2019-01-25T08:26:01.022Z,29.40
2019-01-25T08:28:48.901Z,29.43
2019-01-25T08:31:36.608Z,27.37
2019-01-25T08:34:24.429Z,26.73
2019-01-25T08:37:12.656Z,27.00
2019-01-25T08:40:00.608Z,26.50
2019-01-25T08:42:48.264Z,28.03
2019-01-25T08:45:35.813Z,26.60
2019-01-25T08:48:23.768Z,27.23
2019-01-25T08:51:11.715Z,26.57
2019-01-25T08:53:59.730Z,28.90
2019-01-25T08:56:47.418Z,27.80
2019-01-25T08:59:35.194Z,28.47
2019-01-25T09:02:23.074Z,27.90
2019-01-25T09:05:11.532Z,28.13
2019-01-25T09:07:59.272Z,29.33
2019-01-25T09:10:47.262Z,28.83
2019-01-25T09:13:35.480Z,29.27
2019-01-25T09:16:23.428Z,28.40
2019-01-25T09:19:11.194Z,28.53
2019-01-25T09:21:58.981Z,27.80
2019-01-25T09:24:46.940Z,27.83
2019-01-25T09:27:34.617Z,27.40
2019-01-25T09:30:24.577Z,26.10
2019-01-25T09:33:12.297Z,28.07
2019-01-25T09:35:59.933Z,27.33
2019-01-25T09:38:47.885Z,26.17
2019-01-25T09:41:35.777Z,25.40
2019-01-25T09:44:23.455Z,25.53
2019-01-25T09:47:11.119Z,25.83
2019-01-25T09:49:59.020Z,26.30
2019-01-25T09:52:47.429Z,26.17
2019-01-25T09:55:35.145Z,26.50
2019-01-25T09:58:23.072Z,26.80
2019-01-25T10:01:11.104Z,27.37
2019-01-25T10:03:58.582Z,26.90
2019-01-25T10:06:46.444Z,28.37
2019-01-25T10:09:34.773Z,28.27
2019-01-25T10:12:22.453Z,28.90
2019-01-25T10:15:30.089Z,28.50
2019-01-25T10:18:17.552Z,27.67
2019-01-25T10:21:05.524Z,27.30
2019-01-25T10:23:53.098Z,27.17
2019-01-25T10:26:40.971Z,28.30
2019-01-25T10:29:28.997Z,27.30
2019-01-25T10:32:17.110Z,28.07
2019-01-25T10:35:07.965Z,26.67
2019-01-25T10:37:55.634Z,28.40
2019-01-25T10:40:43.244Z,42.17
2019-01-25T10:43:30.930Z,29.13
2019-01-25T10:46:18.214Z,29.60
2019-01-25T10:49:05.877Z,27.53
2019-01-25T10:51:53.780Z,27.37
2019-01-25T10:54:41.877Z,27.57
2019-01-25T10:57:29.755Z,25.53
2019-01-25T11:00:21.870Z,26.83
2019-01-25T11:03:09.889Z,27.40
2019-01-25T11:05:57.397Z,25.40
2019-01-25T11:08:45.540Z,25.70
2019-01-25T11:11:33.205Z,26.33
2019-01-25T11:14:21.165Z,27.00
2019-01-25T11:17:09.128Z,25.00
2019-01-25T11:19:57.280Z,25.73
2019-01-25T11:22:45.193Z,23.77
2019-01-25T11:25:35.772Z,23.83
2019-01-25T11:28:23.824Z,23.73
2019-01-25T11:31:11.513Z,23.87
2019-01-25T11:33:59.364Z,24.67
2019-01-25T11:36:47.202Z,24.83
2019-01-25T11:39:35.297Z,24.97
2019-01-25T11:42:23.284Z,23.20
2019-01-25T11:45:12.310Z,22.50
2019-01-25T11:48:00.308Z,23.87
2019-01-25T11:50:48.219Z,22.27
2019-01-25T11:53:35.903Z,22.63
2019-01-25T11:56:23.913Z,23.73
2019-01-25T11:59:11.486Z,21.97
2019-01-25T12:01:59.392Z,20.53
2019-01-25T12:04:47.165Z,18.10
2019-01-25T12:07:34.920Z,19.00
2019-01-25T12:10:27.346Z,18.53
2019-01-25T12:13:16.340Z,19.27
2019-01-25T12:16:04.876Z,19.63
2019-01-25T12:18:52.797Z,19.63
2019-01-25T12:21:40.625Z,20.37
2019-01-25T12:24:28.277Z,16.33
2019-01-25T12:27:16.033Z,17.33
2019-01-25T12:30:21.835Z,16.93
2019-01-25T12:33:09.857Z,16.73
2019-01-25T12:35:57.896Z,17.70
2019-01-25T12:38:45.691Z,17.37
2019-01-25T12:41:33.576Z,16.77
2019-01-25T12:44:21.472Z,16.23
2019-01-25T12:47:09.167Z,16.63
2019-01-25T12:49:56.814Z,16.00
2019-01-25T12:52:44.464Z,17.67
2019-01-25T12:55:32.908Z,26.53
2019-01-25T12:58:20.662Z,23.37
2019-01-25T13:01:09.781Z,25.53
2019-01-25T13:03:58.367Z,24.13
2019-01-25T13:06:46.129Z,20.80
2019-01-25T13:09:33.929Z,21.70
2019-01-25T13:12:25.165Z,23.03
2019-01-25T13:15:13.386Z,18.77
2019-01-25T13:18:01.322Z,22.03
2019-01-25T13:20:49.231Z,29.37
2019-01-25T13:23:37.041Z,25.10
2019-01-25T13:26:24.981Z,25.67
2019-01-25T13:29:12.944Z,23.90
2019-01-25T13:32:00.598Z,20.90
2019-01-25T13:34:48.425Z,17.03
2019-01-25T13:37:36.310Z,19.57
2019-01-25T13:40:25.880Z,19.83
2019-01-25T13:43:13.911Z,31.43
2019-01-25T13:46:02.194Z,20.83
2019-01-25T13:48:49.827Z,16.87
2019-01-25T13:51:37.431Z,18.43
2019-01-25T13:54:28.814Z,18.63
2019-01-25T13:57:15.993Z,16.80
2019-01-25T14:00:09.709Z,15.70
2019-01-25T14:02:57.602Z,16.73
2019-01-25T14:05:45.525Z,19.57
2019-01-25T14:08:33.474Z,16.97
2019-01-25T14:11:21.388Z,16.77
2019-01-25T14:14:10.952Z,17.90
2019-01-25T14:16:58.620Z,15.07
2019-01-25T14:19:46.495Z,16.90
2019-01-25T14:22:34.183Z,24.70
2019-01-25T14:25:22.241Z,15.47
2019-01-25T14:28:10.189Z,16.53
2019-01-25T14:30:58.094Z,16.97
2019-01-25T14:33:45.823Z,14.60
2019-01-25T14:36:34.069Z,18.07
2019-01-25T14:39:21.949Z,14.03
2019-01-25T14:42:09.618Z,14.73
2019-01-25T14:44:57.359Z,14.37
2019-01-25T14:47:45.535Z,13.47
2019-01-25T14:50:33.326Z,14.23
2019-01-25T14:53:21.253Z,14.77
2019-01-25T14:56:09.021Z,13.53
2019-01-25T14:58:57.177Z,13.20
2019-01-25T15:01:45.001Z,12.90
2019-01-25T15:04:32.630Z,13.37
2019-01-25T15:07:20.409Z,12.80
2019-01-25T15:10:11.397Z,14.53
2019-01-25T15:12:59.241Z,12.17
2019-01-25T15:15:47.124Z,12.57
2019-01-25T15:18:34.945Z,13.03
2019-01-25T15:21:22.509Z,13.20
2019-01-25T15:24:10.593Z,14.00
2019-01-25T15:26:58.318Z,13.93
2019-01-25T15:29:46.012Z,13.13
2019-01-25T15:32:33.985Z,12.97
2019-01-25T15:35:22.207Z,12.97
2019-01-25T15:38:09.961Z,13.07
2019-01-25T15:40:57.827Z,14.57
2019-01-25T15:43:45.733Z,14.37
2019-01-25T15:46:33.689Z,15.30
2019-01-25T15:49:21.232Z,13.47
2019-01-25T15:52:09.250Z,13.67
2019-01-25T15:54:57.254Z,15.30
2019-01-25T15:57:44.857Z,13.73
2019-01-25T16:00:32.741Z,13.67
2019-01-25T16:03:20.408Z,12.83
2019-01-25T16:06:08.264Z,13.63
2019-01-25T16:08:56.193Z,13.90
2019-01-25T16:11:44.321Z,15.10
2019-01-25T16:14:32.252Z,12.83
2019-01-25T16:17:19.972Z,12.30
2019-01-25T16:20:11.276Z,12.97
2019-01-25T16:22:58.886Z,13.37
2019-01-25T16:25:46.792Z,14.13
2019-01-25T16:28:34.719Z,12.87
2019-01-25T16:31:22.796Z,14.70
2019-01-25T16:34:10.485Z,14.30
2019-01-25T16:36:58.162Z,13.97
2019-01-25T16:39:45.853Z,13.67
2019-01-25T16:42:34.024Z,12.63
2019-01-25T16:45:24.828Z,12.80
2019-01-25T16:48:12.659Z,12.27
2019-01-25T16:51:00.286Z,13.60
2019-01-25T16:53:48.064Z,13.20
2019-01-25T16:56:35.675Z,13.50
2019-01-25T16:59:23.558Z,12.47
2019-01-25T17:02:11.265Z,11.67
2019-01-25T17:04:59.119Z,11.00
2019-01-25T17:07:47.012Z,9.87
2019-01-25T17:10:35.037Z,9.90
2019-01-25T17:13:22.946Z,9.60
2019-01-25T17:16:11.060Z,8.90
2019-01-25T17:18:58.981Z,8.30
2019-01-25T17:21:46.608Z,8.50
2019-01-25T17:24:34.537Z,9.27
2019-01-25T17:27:22.241Z,10.33
2019-01-25T17:30:15.598Z,12.00
2019-01-25T17:33:04.157Z,8.40
2019-01-25T17:35:51.752Z,9.00
2019-01-25T17:38:39.397Z,11.27
2019-01-25T17:41:27.353Z,13.97
2019-01-25T17:44:14.977Z,28.57
2019-01-25T17:47:02.542Z,16.17
2019-01-25T17:49:50.479Z,12.23
2019-01-25T17:52:38.236Z,10.60
2019-01-25T17:55:25.990Z,11.07
2019-01-25T17:58:13.528Z,14.30
2019-01-25T18:01:01.280Z,14.57
2019-01-25T18:03:49.316Z,12.93
2019-01-25T18:06:36.925Z,13.53
2019-01-25T18:09:24.878Z,13.03
2019-01-25T18:12:12.757Z,12.47
2019-01-25T18:15:01.399Z,12.30
2019-01-25T18:17:49.134Z,10.83
2019-01-25T18:20:37.278Z,10.37
2019-01-25T18:23:25.677Z,9.90
2019-01-25T18:26:15.069Z,9.07
2019-01-25T18:29:02.629Z,10.50
2019-01-25T18:31:51.144Z,9.10
2019-01-25T18:34:39.146Z,9.30
2019-01-25T18:37:27.045Z,9.53
2019-01-25T18:40:14.841Z,10.80
2019-01-25T18:43:02.566Z,10.67
2019-01-25T18:45:50.916Z,14.13
2019-01-25T18:48:38.678Z,10.93
2019-01-25T18:51:26.133Z,10.70
2019-01-25T18:54:13.884Z,10.70
2019-01-25T18:57:01.596Z,10.53
2019-01-25T18:59:49.442Z,10.33
2019-01-25T19:02:37.275Z,11.27
2019-01-25T19:05:24.947Z,10.83
2019-01-25T19:08:12.726Z,11.43
2019-01-25T19:11:00.435Z,10.97
2019-01-25T19:13:48.305Z,10.97
2019-01-25T19:16:35.929Z,11.37
2019-01-25T19:19:23.613Z,10.83
2019-01-25T19:22:11.647Z,10.07
2019-01-25T19:24:59.483Z,10.63
2019-01-25T19:27:47.096Z,10.30
2019-01-25T19:30:40.706Z,9.77
2019-01-25T19:33:28.393Z,10.33
2019-01-25T19:36:18.005Z,10.13
2019-01-25T19:39:08.505Z,11.33
2019-01-25T19:41:55.973Z,10.30
2019-01-25T19:44:43.598Z,10.03
2019-01-25T19:47:31.328Z,10.60
2019-01-25T19:50:20.929Z,10.63
2019-01-25T19:53:08.841Z,11.13
2019-01-25T19:55:56.601Z,10.00
2019-01-25T19:58:45.782Z,10.60
2019-01-25T20:01:34.161Z,10.73
2019-01-25T20:04:22.519Z,9.80
2019-01-25T20:07:10.301Z,10.37
2019-01-25T20:09:58.157Z,11.30
2019-01-25T20:12:46.290Z,10.83
2019-01-25T20:15:34.395Z,9.93
2019-01-25T20:18:22.559Z,10.20
2019-01-25T20:21:10.648Z,10.20
2019-01-25T20:23:58.510Z,9.70
2019-01-25T20:26:48.396Z,10.13
2019-01-25T20:29:36.317Z,11.13
2019-01-25T20:32:27.354Z,10.50
2019-01-25T20:35:18.353Z,9.63
2019-01-25T20:38:07.148Z,10.77
2019-01-25T20:40:54.884Z,9.93
2019-01-25T20:43:43.358Z,10.63
2019-01-25T20:46:31.326Z,11.63
2019-01-25T20:49:19.201Z,9.83
2019-01-25T20:52:13.181Z,11.23
2019-01-25T20:55:00.845Z,11.27
2019-01-25T20:57:52.819Z,10.40
2019-01-25T21:00:41.264Z,9.93
2019-01-25T21:03:38.098Z,10.47
2019-01-25T21:06:28.639Z,10.17
2019-01-25T21:09:16.398Z,9.63
2019-01-25T21:12:04.402Z,9.50
2019-01-25T21:14:52.346Z,10.30
2019-01-25T21:17:40.471Z,9.83
2019-01-25T21:20:36.885Z,8.90
2019-01-25T21:23:24.605Z,10.73
2019-01-25T21:26:12.434Z,9.77
2019-01-25T21:29:00.365Z,9.43
2019-01-25T21:31:48.234Z,8.73
2019-01-25T21:34:36.102Z,9.30
2019-01-25T21:37:23.759Z,8.83
2019-01-25T21:40:19.781Z,9.27
2019-01-25T21:43:07.698Z,9.60
2019-01-25T21:45:55.564Z,9.20
2019-01-25T21:48:43.265Z,9.10
2019-01-25T21:51:30.655Z,9.43
2019-01-25T21:54:18.573Z,8.30
2019-01-25T21:57:06.208Z,9.40
2019-01-25T21:59:54.138Z,8.73
2019-01-25T22:02:42.051Z,9.30
2019-01-25T22:05:30.481Z,9.00
2019-01-25T22:08:18.090Z,8.47
2019-01-25T22:11:05.713Z,9.60
2019-01-25T22:13:53.371Z,8.53
2019-01-25T22:16:41.248Z,8.77
2019-01-25T22:19:28.916Z,8.97
2019-01-25T22:22:16.634Z,9.13
2019-01-25T22:25:07.470Z,8.70
2019-01-25T22:27:56.081Z,9.07
2019-01-25T22:30:43.672Z,8.63
2019-01-25T22:33:31.203Z,8.43
2019-01-25T22:36:19.102Z,9.27
2019-01-25T22:39:07.954Z,8.97
2019-01-25T22:41:56.018Z,9.07
2019-01-25T22:44:43.748Z,8.83
2019-01-25T22:47:31.549Z,8.20
2019-01-25T22:50:24.976Z,8.50
2019-01-25T22:53:13.291Z,9.53
2019-01-25T22:56:01.250Z,10.03
2019-01-25T22:58:49.153Z,9.53
2019-01-25T23:01:37.090Z,9.47
2019-01-25T23:04:33.525Z,9.10
2019-01-25T23:07:21.156Z,8.93
2019-01-25T23:10:10.649Z,8.77
2019-01-25T23:12:58.209Z,9.10
2019-01-25T23:15:46.297Z,9.80
2019-01-25T23:18:33.933Z,9.03
2019-01-25T23:21:21.623Z,9.47
2019-01-25T23:24:09.317Z,8.83
2019-01-25T23:26:56.974Z,8.90
2019-01-25T23:29:44.946Z,8.63
2019-01-25T23:32:32.807Z,9.73
2019-01-25T23:35:20.885Z,8.93
2019-01-25T23:38:08.784Z,9.13
2019-01-25T23:40:56.532Z,9.23
2019-01-25T23:43:44.392Z,10.03
2019-01-25T23:46:32.485Z,9.17
2019-01-25T23:49:20.334Z,9.27
2019-01-25T23:52:08.160Z,9.90
2019-01-25T23:55:07.902Z,9.53
2019-01-25T23:57:55.743Z,9.80
